createdAt,value
2023-05-09T00:00:04.198Z,1022.69
2023-05-09T00:00:37.710Z,1022.69
2023-05-09T00:01:05.854Z,1022.69
2023-05-09T00:01:36.671Z,1022.69
2023-05-09T00:02:08.791Z,1022.79
2023-05-09T00:02:39.633Z,1022.79
2023-05-09T00:03:10.542Z,1022.69
2023-05-09T00:03:40.822Z,1022.69
2023-05-09T00:04:12.336Z,1022.79
2023-05-09T00:04:42.909Z,1022.79
2023-05-09T00:05:13.920Z,1022.89
2023-05-09T00:05:45.121Z,1022.89
2023-05-09T00:06:15.900Z,1022.79
2023-05-09T00:06:46.896Z,1022.79
2023-05-09T00:07:17.617Z,1022.79
2023-05-09T00:07:49.558Z,1022.79
2023-05-09T00:08:46.098Z,1022.48
2023-05-09T00:09:12.110Z,1022.69
2023-05-09T00:09:23.190Z,1022.69
2023-05-09T00:09:53.550Z,1022.69
2023-05-09T00:10:24.991Z,1022.69
2023-05-09T00:10:55.084Z,1022.79
2023-05-09T00:11:29.639Z,1022.79
2023-05-09T00:11:57.376Z,1022.89
2023-05-09T00:12:31.272Z,1022.89
2023-05-09T00:13:01.590Z,1022.69
2023-05-09T00:13:30.210Z,1022.69
2023-05-09T00:14:07.005Z,1022.89
2023-05-09T00:14:32.177Z,1022.89
2023-05-09T00:15:35.281Z,1022.99
2023-05-09T00:16:05.132Z,1022.89
2023-05-09T00:16:35.929Z,1022.89
2023-05-09T00:17:06.751Z,1022.79
2023-05-09T00:17:38.965Z,1022.79
2023-05-09T00:18:10.046Z,1022.69
2023-05-09T00:18:41.127Z,1022.69
2023-05-09T00:19:11.409Z,1022.79
2023-05-09T00:19:41.859Z,1022.79
2023-05-09T00:20:16.327Z,1022.69
2023-05-09T00:20:43.827Z,1022.69
2023-05-09T00:21:15.229Z,1022.59
2023-05-09T00:21:50.884Z,1022.59
2023-05-09T00:22:17.048Z,1022.89
2023-05-09T00:22:50.661Z,1022.89
2023-05-09T00:23:20.549Z,1022.79
2023-05-09T00:24:29.790Z,1022.69
2023-05-09T00:26:51.182Z,1022.69
2023-05-09T00:26:56.881Z,1022.59
2023-05-09T00:27:27.966Z,1022.59
2023-05-09T00:27:58.220Z,1022.69
2023-05-09T00:28:29.881Z,1022.69
2023-05-09T00:29:05.026Z,1022.48
2023-05-09T00:29:32.935Z,1022.48
2023-05-09T00:30:05.621Z,1022.59
2023-05-09T00:30:33.769Z,1022.59
2023-05-09T00:31:04.619Z,1022.69
2023-05-09T00:31:35.181Z,1022.69
2023-05-09T00:32:06.801Z,1022.48
2023-05-09T00:32:37.515Z,1022.48
2023-05-09T00:33:08.537Z,1022.59
2023-05-09T00:33:39.560Z,1022.59
2023-05-09T00:34:10.817Z,1022.69
2023-05-09T00:34:42.963Z,1022.69
2023-05-09T00:35:13.013Z,1022.48
2023-05-09T00:35:43.478Z,1022.48
2023-05-09T00:36:14.750Z,1022.69
2023-05-09T00:36:55.258Z,1022.69
2023-05-09T00:37:17.024Z,1022.59
2023-05-09T00:37:47.044Z,1022.59
2023-05-09T00:38:18.610Z,1022.48
2023-05-09T00:38:49.724Z,1022.48
2023-05-09T00:39:21.083Z,1022.59
2023-05-09T00:39:51.510Z,1022.59
2023-05-09T00:40:22.917Z,1022.48
2023-05-09T00:40:53.486Z,1022.59
2023-05-09T00:41:24.691Z,1022.59
2023-05-09T00:41:55.080Z,1022.38
2023-05-09T00:42:25.940Z,1022.38
2023-05-09T00:42:57.477Z,1022.38
2023-05-09T00:43:28.210Z,1022.38
2023-05-09T00:43:58.999Z,1022.38
2023-05-09T00:44:31.043Z,1022.38
2023-05-09T00:45:02.989Z,1022.38
2023-05-09T00:45:33.132Z,1022.38
2023-05-09T00:46:03.096Z,1022.32
2023-05-09T00:46:52.240Z,1022.32
2023-05-09T00:47:04.756Z,1022.38
2023-05-09T00:47:36.093Z,1022.38
2023-05-09T00:48:07.302Z,1022.48
2023-05-09T00:48:38.173Z,1022.48
2023-05-09T00:49:09.064Z,1022.48
2023-05-09T00:49:40.340Z,1022.48
2023-05-09T00:50:12.083Z,1022.48
2023-05-09T00:50:42.577Z,1022.48
2023-05-09T00:51:13.301Z,1022.38
2023-05-09T00:51:44.341Z,1022.38
2023-05-09T00:52:15.108Z,1022.38
2023-05-09T00:52:45.988Z,1022.38
2023-05-09T00:53:17.090Z,1022.38
2023-05-09T00:53:48.281Z,1022.38
2023-05-09T00:54:19.084Z,1022.38
2023-05-09T00:54:50.338Z,1022.38
2023-05-09T00:55:38.526Z,1022.32
2023-05-09T00:55:52.940Z,1022.32
2023-05-09T00:56:23.711Z,1022.21
2023-05-09T00:56:53.902Z,1022.32
2023-05-09T00:57:25.150Z,1022.32
2023-05-09T00:57:56.104Z,1022.11
2023-05-09T00:58:27.117Z,1022.11
2023-05-09T00:58:58.191Z,1022.11
2023-05-09T00:59:29.116Z,1022.11
2023-05-09T01:00:02.148Z,1022.38
2023-05-09T01:00:31.764Z,1022.38
2023-05-09T01:01:02.636Z,1022.32
2023-05-09T01:02:53.815Z,1022.32
2023-05-09T01:03:23.941Z,1022.21
2023-05-09T01:03:54.614Z,1022.32
2023-05-09T01:04:25.282Z,1022.32
2023-05-09T01:04:56.043Z,1022.21
2023-05-09T01:05:27.182Z,1022.21
2023-05-09T01:05:57.907Z,1022.32
2023-05-09T01:06:28.906Z,1022.32
2023-05-09T01:07:00.130Z,1022.11
2023-05-09T01:07:31.994Z,1022.11
2023-05-09T01:08:03.207Z,1022.21
2023-05-09T01:08:33.866Z,1022.21
2023-05-09T01:09:04.439Z,1022.21
2023-05-09T01:09:35.122Z,1022.21
2023-05-09T01:10:06.866Z,1022.11
2023-05-09T01:10:37.148Z,1022.11
2023-05-09T01:11:08.097Z,1022.32
2023-05-09T01:11:39.019Z,1022.32
2023-05-09T01:12:11.321Z,1022.11
2023-05-09T01:12:42.187Z,1022.11
2023-05-09T01:13:13.458Z,1022.11
2023-05-09T01:13:44.271Z,1022.11
2023-05-09T01:14:14.784Z,1022.11
2023-05-09T01:14:45.221Z,1022.11
2023-05-09T01:15:16.532Z,1022.21
2023-05-09T01:15:47.133Z,1022.21
2023-05-09T01:16:18.010Z,1021.81
2023-05-09T01:16:49.218Z,1021.81
2023-05-09T01:17:20.111Z,1022.01
2023-05-09T01:17:51.947Z,1022.01
2023-05-09T01:18:22.659Z,1022.01
2023-05-09T01:18:54.087Z,1022.21
2023-05-09T01:19:24.392Z,1022.21
2023-05-09T01:19:55.270Z,1022.11
2023-05-09T01:20:26.180Z,1022.11
2023-05-09T01:20:57.339Z,1022.01
2023-05-09T01:21:28.267Z,1022.01
2023-05-09T01:21:59.023Z,1022.11
2023-05-09T01:22:30.314Z,1022.11
2023-05-09T01:23:01.973Z,1021.91
2023-05-09T01:23:33.156Z,1021.91
2023-05-09T01:24:04.457Z,1022.01
2023-05-09T01:24:34.404Z,1022.01
2023-05-09T01:25:05.951Z,1022.01
2023-05-09T01:25:35.972Z,1022.01
2023-05-09T01:26:07.120Z,1022.01
2023-05-09T01:26:38.169Z,1022.01
2023-05-09T01:27:09.158Z,1021.91
2023-05-09T01:27:40.198Z,1021.91
2023-05-09T01:28:11.642Z,1022.01
2023-05-09T01:28:42.992Z,1022.01
2023-05-09T01:29:30.156Z,1022.21
2023-05-09T01:29:44.526Z,1022.21
2023-05-09T01:30:16.531Z,1022.01
2023-05-09T01:30:46.239Z,1022.01
2023-05-09T01:31:17.202Z,1021.71
2023-05-09T01:31:48.982Z,1021.71
2023-05-09T01:32:19.448Z,1021.81
2023-05-09T01:32:53.909Z,1021.91
2023-05-09T01:33:21.993Z,1021.91
2023-05-09T01:33:53.525Z,1021.91
2023-05-09T01:34:23.698Z,1021.91
2023-05-09T01:34:54.372Z,1022.11
2023-05-09T01:35:25.401Z,1022.11
2023-05-09T01:36:14.061Z,1022.11
2023-05-09T01:36:27.231Z,1022.11
2023-05-09T01:36:58.301Z,1021.91
2023-05-09T01:37:29.731Z,1021.91
2023-05-09T01:38:00.585Z,1022.01
2023-05-09T01:38:32.155Z,1022.01
2023-05-09T01:39:03.711Z,1022.11
2023-05-09T01:39:33.826Z,1022.11
2023-05-09T01:40:05.255Z,1022.11
2023-05-09T01:40:36.655Z,1022.11
2023-05-09T01:41:06.266Z,1022.01
2023-05-09T01:41:37.341Z,1022.01
2023-05-09T01:42:08.489Z,1022.01
2023-05-09T01:42:39.173Z,1022.01
2023-05-09T01:43:10.290Z,1021.91
2023-05-09T01:43:41.437Z,1021.91
2023-05-09T01:44:13.411Z,1022.01
2023-05-09T01:44:43.767Z,1022.01
2023-05-09T01:45:15.691Z,1021.91
2023-05-09T01:45:45.609Z,1021.91
2023-05-09T01:46:16.283Z,1022.11
2023-05-09T01:46:47.250Z,1022.11
2023-05-09T01:47:18.002Z,1021.71
2023-05-09T01:47:49.468Z,1021.71
2023-05-09T01:48:24.254Z,1022.11
2023-05-09T01:48:51.728Z,1022.11
2023-05-09T01:49:22.885Z,1021.81
2023-05-09T01:49:53.949Z,1021.91
2023-05-09T01:50:24.771Z,1021.91
2023-05-09T01:50:55.509Z,1022.01
2023-05-09T01:51:26.432Z,1022.01
2023-05-09T01:51:57.285Z,1021.91
2023-05-09T01:52:28.290Z,1021.91
2023-05-09T01:52:59.399Z,1022.11
2023-05-09T01:53:30.253Z,1022.11
2023-05-09T01:54:01.489Z,1021.81
2023-05-09T01:54:32.943Z,1021.81
2023-05-09T01:55:04.575Z,1022.11
2023-05-09T01:55:35.299Z,1022.11
2023-05-09T01:56:05.166Z,1022.11
2023-05-09T01:56:36.264Z,1022.11
2023-05-09T01:57:07.484Z,1021.91
2023-05-09T01:57:38.389Z,1021.91
2023-05-09T01:58:09.600Z,1022.11
2023-05-09T01:58:40.298Z,1022.11
2023-05-09T01:59:11.448Z,1022.11
2023-05-09T01:59:42.795Z,1022.11
2023-05-09T02:00:13.847Z,1021.81
2023-05-09T02:00:44.229Z,1021.81
2023-05-09T02:01:15.877Z,1022.01
2023-05-09T02:01:46.181Z,1022.01
2023-05-09T02:02:17.255Z,1021.91
2023-05-09T02:02:48.447Z,1021.91
2023-05-09T02:03:19.883Z,1022.01
2023-05-09T02:03:50.324Z,1022.01
2023-05-09T02:04:39.492Z,1022.01
2023-05-09T02:04:52.664Z,1022.01
2023-05-09T02:05:24.047Z,1021.91
2023-05-09T02:05:54.678Z,1021.91
2023-05-09T02:06:25.351Z,1021.91
2023-05-09T02:06:56.577Z,1021.71
2023-05-09T02:07:27.132Z,1021.71
2023-05-09T02:07:58.649Z,1021.91
2023-05-09T02:08:29.218Z,1021.91
2023-05-09T02:09:00.530Z,1022.01
2023-05-09T02:09:31.971Z,1022.01
2023-05-09T02:10:02.899Z,1021.81
2023-05-09T02:10:34.155Z,1021.81
2023-05-09T02:11:05.202Z,1021.91
2023-05-09T02:11:35.428Z,1021.91
2023-05-09T02:12:06.795Z,1021.81
2023-05-09T02:12:37.551Z,1021.81
2023-05-09T02:13:08.823Z,1021.71
2023-05-09T02:13:39.354Z,1021.71
2023-05-09T02:14:14.051Z,1021.81
2023-05-09T02:14:41.975Z,1021.81
2023-05-09T02:15:13.893Z,1021.71
2023-05-09T02:15:44.780Z,1021.71
2023-05-09T02:16:15.426Z,1021.91
2023-05-09T02:16:51.959Z,1021.91
2023-05-09T02:17:17.003Z,1021.81
2023-05-09T02:17:47.491Z,1021.81
2023-05-09T02:18:18.207Z,1021.91
2023-05-09T02:18:49.352Z,1021.91
2023-05-09T02:19:20.440Z,1021.91
2023-05-09T02:19:51.729Z,1021.91
2023-05-09T02:20:23.047Z,1021.81
2023-05-09T02:20:54.283Z,1021.91
2023-05-09T02:21:25.897Z,1021.91
2023-05-09T02:21:55.496Z,1021.81
2023-05-09T02:22:26.560Z,1021.81
2023-05-09T02:22:57.219Z,1021.81
2023-05-09T02:23:28.661Z,1021.81
2023-05-09T02:23:59.164Z,1021.81
2023-05-09T02:24:30.501Z,1021.81
2023-05-09T02:25:01.875Z,1021.81
2023-05-09T02:25:33.123Z,1021.81
2023-05-09T02:26:04.420Z,1021.91
2023-05-09T02:26:34.870Z,1021.91
2023-05-09T02:27:05.966Z,1021.71
2023-05-09T02:27:36.644Z,1021.71
2023-05-09T02:28:07.584Z,1021.81
2023-05-09T02:28:38.317Z,1021.81
2023-05-09T02:29:09.589Z,1021.91
2023-05-09T02:30:13.165Z,1021.81
2023-05-09T02:30:42.709Z,1021.81
2023-05-09T02:31:14.350Z,1021.91
2023-05-09T02:31:45.111Z,1021.91
2023-05-09T02:32:16.191Z,1021.81
2023-05-09T02:32:46.733Z,1021.81
2023-05-09T02:33:17.438Z,1021.71
2023-05-09T02:33:48.430Z,1021.71
2023-05-09T02:34:19.435Z,1021.81
2023-05-09T02:34:50.960Z,1021.81
2023-05-09T02:35:21.806Z,1021.71
2023-05-09T02:35:53.620Z,1021.71
2023-05-09T02:36:23.726Z,1021.71
2023-05-09T02:36:54.996Z,1021.91
2023-05-09T02:37:25.662Z,1021.91
2023-05-09T02:37:56.671Z,1021.71
2023-05-09T02:38:27.610Z,1021.71
2023-05-09T02:38:58.808Z,1021.81
2023-05-09T02:39:29.408Z,1021.81
2023-05-09T02:40:00.871Z,1021.50
2023-05-09T02:40:31.947Z,1021.50
2023-05-09T02:41:02.748Z,1021.91
2023-05-09T02:41:34.594Z,1021.91
2023-05-09T02:42:05.300Z,1021.91
2023-05-09T02:42:35.895Z,1021.91
2023-05-09T02:43:07.292Z,1021.81
2023-05-09T02:43:37.437Z,1021.81
2023-05-09T02:44:09.024Z,1021.71
2023-05-09T02:44:39.519Z,1021.71
2023-05-09T02:45:10.974Z,1021.71
2023-05-09T02:45:41.772Z,1021.71
2023-05-09T02:46:12.647Z,1021.81
2023-05-09T02:46:44.154Z,1021.81
2023-05-09T02:47:15.309Z,1021.71
2023-05-09T02:47:46.186Z,1021.71
2023-05-09T02:48:16.589Z,1022.01
2023-05-09T02:48:47.585Z,1022.01
2023-05-09T02:49:31.479Z,1021.71
2023-05-09T02:49:49.497Z,1021.71
2023-05-09T02:50:21.085Z,1021.81
2023-05-09T02:50:51.814Z,1021.81
2023-05-09T02:51:22.489Z,1021.91
2023-05-09T02:51:54.317Z,1021.91
2023-05-09T02:52:25.709Z,1021.91
2023-05-09T02:52:55.764Z,1021.81
2023-05-09T02:53:44.293Z,1021.81
2023-05-09T02:53:57.497Z,1021.50
2023-05-09T02:54:28.690Z,1021.50
2023-05-09T02:54:59.504Z,1021.60
2023-05-09T02:55:30.783Z,1021.60
2023-05-09T02:56:01.709Z,1021.81
2023-05-09T02:56:32.652Z,1021.81
2023-05-09T02:57:04.596Z,1022.01
2023-05-09T02:57:35.415Z,1022.01
2023-05-09T02:58:14.078Z,1021.91
2023-05-09T02:58:37.001Z,1021.91
2023-05-09T02:59:08.196Z,1021.81
2023-05-09T02:59:38.651Z,1021.81
2023-05-09T03:00:11.184Z,1021.71
2023-05-09T03:00:41.891Z,1021.71
2023-05-09T03:01:12.416Z,1021.71
2023-05-09T03:01:42.626Z,1021.71
2023-05-09T03:02:13.596Z,1021.81
2023-05-09T03:02:45.542Z,1021.81
2023-05-09T03:03:16.695Z,1021.81
2023-05-09T03:03:46.937Z,1021.81
2023-05-09T03:04:17.415Z,1021.60
2023-05-09T03:04:48.688Z,1021.60
2023-05-09T03:05:19.527Z,1021.81
2023-05-09T03:05:50.947Z,1021.81
2023-05-09T03:06:22.583Z,1021.81
2023-05-09T03:06:52.728Z,1021.91
2023-05-09T03:07:25.942Z,1021.91
2023-05-09T03:07:55.284Z,1021.71
2023-05-09T03:08:26.188Z,1021.71
2023-05-09T03:08:56.949Z,1021.71
2023-05-09T03:09:28.310Z,1021.71
2023-05-09T03:09:58.641Z,1021.81
2023-05-09T03:10:29.392Z,1021.81
2023-05-09T03:11:01.115Z,1021.81
2023-05-09T03:11:48.710Z,1021.81
2023-05-09T03:12:03.570Z,1022.01
2023-05-09T03:12:33.755Z,1022.01
2023-05-09T03:13:06.018Z,1021.60
2023-05-09T03:13:36.427Z,1021.60
2023-05-09T03:14:07.024Z,1021.91
2023-05-09T03:14:37.796Z,1021.91
2023-05-09T03:15:08.961Z,1021.81
2023-05-09T03:15:39.570Z,1021.81
2023-05-09T03:16:10.626Z,1021.60
2023-05-09T03:16:42.024Z,1021.60
2023-05-09T03:17:12.832Z,1021.81
2023-05-09T03:17:43.657Z,1021.81
2023-05-09T03:18:15.913Z,1021.60
2023-05-09T03:18:46.448Z,1021.60
2023-05-09T03:19:47.830Z,1021.50
2023-05-09T03:20:36.532Z,1021.71
2023-05-09T03:20:49.794Z,1021.71
2023-05-09T03:21:20.831Z,1021.81
2023-05-09T03:21:52.065Z,1021.81
2023-05-09T03:22:22.811Z,1021.50
2023-05-09T03:22:53.555Z,1021.71
2023-05-09T03:23:25.895Z,1021.71
2023-05-09T03:24:27.250Z,1021.60
2023-05-09T03:24:57.764Z,1021.81
2023-05-09T03:25:28.505Z,1021.81
2023-05-09T03:25:59.631Z,1021.60
2023-05-09T03:26:30.547Z,1021.60
2023-05-09T03:27:02.105Z,1021.71
2023-05-09T03:27:32.617Z,1021.71
2023-05-09T03:28:03.805Z,1021.60
2023-05-09T03:28:35.661Z,1021.60
2023-05-09T03:29:06.356Z,1021.81
2023-05-09T03:29:37.224Z,1021.81
2023-05-09T03:30:09.341Z,1021.50
2023-05-09T03:30:38.788Z,1021.50
2023-05-09T03:31:09.715Z,1021.60
2023-05-09T03:31:40.615Z,1021.60
2023-05-09T03:32:13.874Z,1021.50
2023-05-09T03:32:42.637Z,1021.50
2023-05-09T03:33:13.727Z,1021.60
2023-05-09T03:33:45.431Z,1021.60
2023-05-09T03:34:16.594Z,1021.60
2023-05-09T03:34:47.163Z,1021.60
2023-05-09T03:35:35.507Z,1021.60
2023-05-09T03:35:48.708Z,1021.60
2023-05-09T03:36:20.082Z,1021.40
2023-05-09T03:36:50.889Z,1021.40
2023-05-09T03:37:22.268Z,1021.71
2023-05-09T03:37:53.093Z,1021.40
2023-05-09T03:38:41.402Z,1021.40
2023-05-09T03:38:56.360Z,1021.50
2023-05-09T03:39:26.905Z,1021.50
2023-05-09T03:39:57.052Z,1021.50
2023-05-09T03:40:28.003Z,1021.50
2023-05-09T03:40:58.912Z,1021.50
2023-05-09T03:41:29.785Z,1021.50
2023-05-09T03:42:00.955Z,1021.60
2023-05-09T03:42:32.123Z,1021.60
2023-05-09T03:43:02.714Z,1021.50
2023-05-09T03:43:33.994Z,1021.50
2023-05-09T03:44:04.989Z,1021.50
2023-05-09T03:44:36.573Z,1021.50
2023-05-09T03:45:08.785Z,1021.50
2023-05-09T03:45:37.911Z,1021.50
2023-05-09T03:46:09.057Z,1021.50
2023-05-09T03:46:40.092Z,1021.50
2023-05-09T03:47:28.093Z,1021.20
2023-05-09T03:47:42.200Z,1021.20
2023-05-09T03:48:12.904Z,1021.60
2023-05-09T03:48:43.665Z,1021.60
2023-05-09T03:49:15.437Z,1021.30
2023-05-09T03:49:46.706Z,1021.30
2023-05-09T03:50:18.629Z,1021.30
2023-05-09T03:50:47.791Z,1021.30
2023-05-09T03:51:18.771Z,1021.50
2023-05-09T03:51:49.539Z,1021.50
2023-05-09T03:52:20.901Z,1021.40
2023-05-09T03:53:09.133Z,1021.40
2023-05-09T03:53:23.230Z,1021.40
2023-05-09T03:53:53.855Z,1021.40
2023-05-09T03:54:25.431Z,1021.40
2023-05-09T03:54:56.887Z,1021.20
2023-05-09T03:55:27.446Z,1021.20
2023-05-09T03:56:15.985Z,1021.81
2023-05-09T03:56:28.994Z,1021.81
2023-05-09T03:56:59.533Z,1021.20
2023-05-09T04:01:40.191Z,1021.60
2023-05-09T04:02:10.008Z,1021.30
2023-05-09T04:06:41.553Z,1021.50
2023-05-09T04:06:52.692Z,1021.40
2023-05-09T04:07:20.007Z,1021.50
2023-05-09T04:07:50.693Z,1021.50
2023-05-09T04:08:21.913Z,1021.30
2023-05-09T04:08:53.004Z,1021.40
2023-05-09T04:09:24.912Z,1021.40
2023-05-09T04:10:00.126Z,1021.40
2023-05-09T04:10:27.320Z,1021.40
2023-05-09T04:10:57.174Z,1021.60
2023-05-09T04:11:28.327Z,1021.60
2023-05-09T04:11:59.299Z,1021.40
2023-05-09T04:12:30.492Z,1021.40
2023-05-09T04:13:01.597Z,1021.60
2023-05-09T04:13:32.051Z,1021.60
2023-05-09T04:14:20.338Z,1021.71
2023-05-09T04:14:34.052Z,1021.71
2023-05-09T04:15:05.884Z,1021.60
2023-05-09T04:15:35.716Z,1021.60
2023-05-09T04:16:07.853Z,1021.50
2023-05-09T04:16:38.781Z,1021.50
2023-05-09T04:17:10.398Z,1021.40
2023-05-09T04:17:40.455Z,1021.40
2023-05-09T04:18:11.215Z,1021.40
2023-05-09T04:18:41.805Z,1021.40
2023-05-09T04:19:13.217Z,1021.50
2023-05-09T04:19:44.064Z,1021.50
2023-05-09T04:20:15.646Z,1021.50
2023-05-09T04:20:46.277Z,1021.50
2023-05-09T04:21:17.749Z,1021.40
2023-05-09T04:21:48.493Z,1021.40
2023-05-09T04:22:19.186Z,1021.40
2023-05-09T04:22:49.993Z,1021.40
2023-05-09T04:23:21.249Z,1021.50
2023-05-09T04:23:52.096Z,1021.50
2023-05-09T04:24:23.118Z,1021.40
2023-05-09T04:24:54.067Z,1021.50
2023-05-09T04:25:24.747Z,1021.50
2023-05-09T04:25:55.765Z,1021.30
2023-05-09T04:26:28.060Z,1021.30
2023-05-09T04:26:58.261Z,1021.50
2023-05-09T04:27:29.168Z,1021.50
2023-05-09T04:27:59.909Z,1021.40
2023-05-09T04:28:30.847Z,1021.40
2023-05-09T04:29:01.962Z,1021.40
2023-05-09T04:29:33.045Z,1021.40
2023-05-09T04:30:05.280Z,1021.60
2023-05-09T04:30:35.195Z,1021.60
2023-05-09T04:31:06.088Z,1021.71
2023-05-09T04:31:37.297Z,1021.71
2023-05-09T04:32:25.143Z,1021.40
2023-05-09T04:32:39.809Z,1021.40
2023-05-09T04:33:09.922Z,1021.50
2023-05-09T04:33:40.940Z,1021.50
2023-05-09T04:34:12.167Z,1021.40
2023-05-09T04:34:43.361Z,1021.40
2023-05-09T04:35:14.927Z,1021.40
2023-05-09T04:35:45.300Z,1021.40
2023-05-09T04:36:15.770Z,1021.30
2023-05-09T04:36:47.774Z,1021.30
2023-05-09T04:37:52.343Z,1021.50
2023-05-09T04:38:20.470Z,1021.40
2023-05-09T04:38:51.662Z,1021.40
2023-05-09T04:39:21.907Z,1021.60
2023-05-09T04:39:53.665Z,1021.40
2023-05-09T04:40:26.718Z,1021.40
2023-05-09T04:40:55.574Z,1021.30
2023-05-09T04:41:26.245Z,1021.30
2023-05-09T04:41:57.031Z,1021.60
2023-05-09T04:42:28.396Z,1021.60
2023-05-09T04:43:00.989Z,1021.50
2023-05-09T04:43:32.758Z,1021.50
2023-05-09T04:44:02.007Z,1021.40
2023-05-09T04:44:32.147Z,1021.40
2023-05-09T04:45:03.503Z,1021.40
2023-05-09T04:45:34.973Z,1021.40
2023-05-09T04:46:05.254Z,1021.40
2023-05-09T04:46:36.759Z,1021.40
2023-05-09T04:47:07.809Z,1021.50
2023-05-09T04:47:38.958Z,1021.50
2023-05-09T04:48:09.453Z,1021.40
2023-05-09T04:48:40.045Z,1021.40
2023-05-09T04:49:10.992Z,1021.40
2023-05-09T04:49:42.192Z,1021.40
2023-05-09T04:50:30.321Z,1021.60
2023-05-09T04:50:44.308Z,1021.60
2023-05-09T04:51:15.424Z,1021.50
2023-05-09T04:51:46.332Z,1021.50
2023-05-09T04:52:18.001Z,1021.50
2023-05-09T04:52:48.625Z,1021.50
2023-05-09T04:53:19.557Z,1021.50
2023-05-09T04:53:50.197Z,1021.50
2023-05-09T04:54:20.989Z,1021.50
2023-05-09T04:54:52.144Z,1021.50
2023-05-09T04:55:54.298Z,1021.40
2023-05-09T04:56:25.144Z,1021.40
2023-05-09T04:57:09.970Z,1021.50
2023-05-09T04:57:26.869Z,1021.50
2023-05-09T04:57:59.402Z,1021.50
2023-05-09T04:58:29.490Z,1021.50
2023-05-09T04:59:18.495Z,1021.50
2023-05-09T04:59:31.824Z,1021.50
2023-05-09T05:00:02.856Z,1021.50
2023-05-09T05:00:50.365Z,1021.50
2023-05-09T05:01:04.470Z,1021.50
2023-05-09T05:01:34.861Z,1021.50
2023-05-09T05:02:05.996Z,1021.40
2023-05-09T05:02:38.276Z,1021.40
2023-05-09T05:03:09.033Z,1021.50
2023-05-09T05:03:39.510Z,1021.50
2023-05-09T05:04:09.984Z,1021.30
2023-05-09T05:04:41.371Z,1021.30
2023-05-09T05:05:12.744Z,1021.50
2023-05-09T05:05:43.152Z,1021.50
2023-05-09T05:06:14.524Z,1021.40
2023-05-09T05:06:49.464Z,1021.40
2023-05-09T05:07:16.063Z,1021.40
2023-05-09T05:08:04.599Z,1021.40
2023-05-09T05:08:18.714Z,1021.40
2023-05-09T05:09:03.144Z,1021.40
2023-05-09T05:09:20.221Z,1021.30
2023-05-09T05:09:51.185Z,1021.30
2023-05-09T05:10:22.224Z,1021.40
2023-05-09T05:10:53.231Z,1021.30
2023-05-09T05:11:24.305Z,1021.30
2023-05-09T05:12:00.665Z,1021.30
2023-05-09T05:12:28.068Z,1021.30
2023-05-09T05:13:05.336Z,1021.40
2023-05-09T05:13:30.546Z,1021.40
2023-05-09T05:13:59.779Z,1021.30
2023-05-09T05:14:30.127Z,1021.30
2023-05-09T05:15:01.329Z,1021.30
2023-05-09T05:15:32.043Z,1021.30
2023-05-09T05:16:03.100Z,1021.20
2023-05-09T05:16:34.938Z,1021.20
2023-05-09T05:17:05.345Z,1021.30
2023-05-09T05:17:36.157Z,1021.30
2023-05-09T05:18:08.211Z,1021.20
2023-05-09T05:18:38.653Z,1021.20
2023-05-09T05:19:10.047Z,1020.99
2023-05-09T05:19:40.615Z,1020.99
2023-05-09T05:20:10.986Z,1021.20
2023-05-09T05:20:50.168Z,1021.20
2023-05-09T05:21:13.493Z,1021.20
2023-05-09T05:21:44.334Z,1021.20
2023-05-09T05:22:59.630Z,1021.20
2023-05-09T05:23:18.431Z,1021.30
2023-05-09T05:23:49.042Z,1021.30
2023-05-09T05:24:19.165Z,1021.30
2023-05-09T05:24:50.428Z,1021.30
2023-05-09T05:25:40.497Z,1021.30
2023-05-09T05:25:57.002Z,1021.30
2023-05-09T05:26:25.336Z,1021.10
2023-05-09T05:26:54.691Z,1021.20
2023-05-09T05:34:01.347Z,1020.99
2023-05-09T05:34:40.834Z,1020.99
2023-05-09T05:35:11.156Z,1020.89
2023-05-09T05:35:45.779Z,1020.89
2023-05-09T05:36:15.882Z,1021.20
2023-05-09T05:36:45.697Z,1021.20
2023-05-09T05:37:16.100Z,1020.99
2023-05-09T05:37:49.004Z,1020.99
2023-05-09T05:38:17.684Z,1021.10
2023-05-09T05:38:47.933Z,1021.10
2023-05-09T05:39:18.392Z,1020.89
2023-05-09T05:39:49.874Z,1020.89
2023-05-09T05:40:48.432Z,1020.89
2023-05-09T05:40:52.789Z,1020.89
2023-05-09T05:41:24.395Z,1021.10
2023-05-09T05:42:24.374Z,1020.89
2023-05-09T05:42:56.099Z,1020.89
2023-05-09T05:43:26.537Z,1020.89
2023-05-09T05:43:59.065Z,1020.99
2023-05-09T05:44:28.419Z,1020.99
2023-05-09T05:45:01.730Z,1021.10
2023-05-09T05:45:32.124Z,1021.10
2023-05-09T05:46:02.474Z,1021.10
2023-05-09T05:46:32.683Z,1021.10
2023-05-09T05:47:22.131Z,1021.20
2023-05-09T05:47:34.406Z,1021.20
2023-05-09T05:48:05.667Z,1020.89
2023-05-09T05:48:36.378Z,1020.89
2023-05-09T05:49:08.091Z,1020.99
2023-05-09T05:49:38.990Z,1020.99
2023-05-09T05:50:09.648Z,1020.89
2023-05-09T05:50:41.728Z,1020.89
2023-05-09T05:51:11.949Z,1021.10
2023-05-09T05:51:42.731Z,1021.10
2023-05-09T05:52:13.472Z,1020.99
2023-05-09T05:52:44.590Z,1020.99
2023-05-09T05:53:15.495Z,1020.89
2023-05-09T05:53:46.275Z,1020.89
2023-05-09T05:54:17.473Z,1020.89
2023-05-09T05:54:48.250Z,1020.89
2023-05-09T05:55:51.546Z,1021.10
2023-05-09T05:56:38.745Z,1020.69
2023-05-09T05:56:52.746Z,1020.69
2023-05-09T05:57:23.516Z,1021.10
2023-05-09T05:57:54.556Z,1020.89
2023-05-09T05:58:25.393Z,1020.89
2023-05-09T05:58:56.136Z,1020.99
2023-05-09T05:59:27.450Z,1020.99
2023-05-09T05:59:58.245Z,1020.89
2023-05-09T06:00:30.836Z,1020.89
2023-05-09T06:01:02.888Z,1020.79
2023-05-09T06:01:32.648Z,1020.79
2023-05-09T06:02:03.465Z,1020.89
2023-05-09T06:02:33.648Z,1020.89
2023-05-09T06:03:04.802Z,1021.10
2023-05-09T06:03:37.751Z,1021.10
2023-05-09T06:04:08.889Z,1020.99
2023-05-09T06:04:37.320Z,1020.99
2023-05-09T06:05:31.399Z,1020.89
2023-05-09T06:05:39.308Z,1020.89
2023-05-09T06:06:11.635Z,1020.79
2023-05-09T06:06:42.992Z,1020.79
2023-05-09T06:07:29.286Z,1020.79
2023-05-09T06:07:43.779Z,1020.79
2023-05-09T06:08:20.764Z,1020.99
2023-05-09T06:08:45.664Z,1020.99
2023-05-09T06:09:16.536Z,1020.89
2023-05-09T06:09:47.476Z,1020.89
2023-05-09T06:10:18.409Z,1020.99
2023-05-09T06:10:49.543Z,1020.99
2023-05-09T06:11:22.113Z,1020.99
2023-05-09T06:11:52.244Z,1020.99
2023-05-09T06:12:23.596Z,1020.79
2023-05-09T06:12:53.620Z,1020.99
2023-05-09T06:13:24.809Z,1020.99
2023-05-09T06:13:55.450Z,1020.69
2023-05-09T06:14:44.111Z,1020.69
2023-05-09T06:14:58.043Z,1020.99
2023-05-09T06:15:30.398Z,1020.99
2023-05-09T06:16:11.498Z,1020.79
2023-05-09T06:16:32.900Z,1020.79
2023-05-09T06:17:02.146Z,1020.89
2023-05-09T06:17:33.634Z,1020.89
2023-05-09T06:18:04.624Z,1020.79
2023-05-09T06:18:34.854Z,1020.79
2023-05-09T06:19:05.628Z,1020.59
2023-05-09T06:19:36.435Z,1020.59
2023-05-09T06:20:25.208Z,1020.69
2023-05-09T06:29:26.346Z,1020.69
2023-05-09T06:30:25.619Z,1020.79
2023-05-09T06:31:25.703Z,1020.69
2023-05-09T06:31:34.470Z,1020.69
2023-05-09T06:32:05.381Z,1020.69
2023-05-09T06:32:34.483Z,1020.69
2023-05-09T06:33:04.802Z,1020.79
2023-05-09T06:33:36.891Z,1020.79
2023-05-09T06:34:06.534Z,1020.79
2023-05-09T06:34:35.566Z,1020.79
2023-05-09T06:35:07.115Z,1020.69
2023-05-09T06:35:37.754Z,1020.69
2023-05-09T06:36:08.813Z,1020.59
2023-05-09T06:36:40.359Z,1020.59
2023-05-09T06:37:10.836Z,1020.59
2023-05-09T06:37:41.423Z,1020.59
2023-05-09T06:38:13.938Z,1020.59
2023-05-09T06:38:45.072Z,1020.59
2023-05-09T06:39:15.885Z,1020.59
2023-05-09T06:39:46.429Z,1020.59
2023-05-09T06:40:18.103Z,1020.59
2023-05-09T06:40:48.466Z,1020.59
2023-05-09T06:41:18.329Z,1020.69
2023-05-09T06:41:49.772Z,1020.69
2023-05-09T06:42:21.163Z,1020.69
2023-05-09T06:42:51.893Z,1020.69
2023-05-09T06:43:23.170Z,1020.69
2023-05-09T06:43:54.329Z,1020.49
2023-05-09T06:44:25.424Z,1020.49
2023-05-09T06:44:56.104Z,1020.69
2023-05-09T06:45:26.999Z,1020.69
2023-05-09T06:45:57.453Z,1020.59
2023-05-09T06:46:28.635Z,1020.59